createdAt,value
2017-08-30T00:02:12.911Z,8.30
2017-08-30T00:04:40.394Z,9.83
2017-08-30T00:07:07.884Z,10.23
2017-08-30T00:09:45.423Z,11.17
2017-08-30T00:12:12.917Z,10.37
2017-08-30T00:14:43.979Z,11.17
2017-08-30T00:17:14.482Z,9.53
2017-08-30T00:19:41.975Z,9.43
2017-08-30T00:22:15.595Z,11.77
2017-08-30T00:24:56.474Z,8.63
2017-08-30T00:27:24.696Z,11.70
2017-08-30T00:29:52.485Z,11.00
2017-08-30T00:32:20.083Z,11.50
2017-08-30T00:34:47.562Z,10.03
2017-08-30T00:37:15.057Z,8.57
2017-08-30T00:39:42.553Z,8.90
2017-08-30T00:42:16.346Z,8.93
2017-08-30T00:44:43.852Z,10.67
2017-08-30T00:47:11.384Z,9.20
2017-08-30T00:49:38.892Z,11.57
2017-08-30T00:52:13.672Z,18.63
2017-08-30T00:54:41.182Z,16.67
2017-08-30T00:57:08.662Z,10.57
2017-08-30T00:59:36.528Z,9.00
2017-08-30T01:02:04.512Z,13.07
2017-08-30T01:04:35.234Z,8.60
2017-08-30T01:07:05.845Z,10.53
2017-08-30T01:09:34.116Z,15.27
2017-08-30T01:12:05.040Z,10.53
2017-08-30T01:14:32.533Z,11.37
2017-08-30T01:17:00.395Z,13.07
2017-08-30T01:19:34.541Z,16.00
2017-08-30T01:22:02.383Z,11.80
2017-08-30T01:24:35.907Z,17.83
2017-08-30T01:27:03.761Z,13.60
2017-08-30T01:29:34.985Z,14.97
2017-08-30T01:32:06.230Z,12.00
2017-08-30T01:34:34.487Z,13.43
2017-08-30T01:37:05.309Z,11.80
2017-08-30T01:39:32.811Z,10.67
2017-08-30T01:42:00.298Z,21.33
2017-08-30T01:44:33.964Z,14.50
2017-08-30T01:47:01.464Z,11.57
2017-08-30T01:49:35.687Z,14.47
2017-08-30T01:52:03.176Z,18.60
2017-08-30T01:54:30.671Z,13.73
2017-08-30T01:56:58.167Z,18.03
2017-08-30T01:59:25.663Z,15.87
2017-08-30T02:01:53.435Z,17.30
2017-08-30T02:04:20.943Z,16.03
2017-08-30T02:06:54.699Z,13.10
2017-08-30T02:09:25.316Z,18.50
2017-08-30T02:11:56.276Z,13.40
2017-08-30T02:14:24.479Z,13.70
2017-08-30T02:16:55.120Z,19.10
2017-08-30T02:19:22.632Z,14.40
2017-08-30T02:21:56.107Z,11.43
2017-08-30T02:24:23.920Z,13.97
2017-08-30T02:26:51.416Z,12.00
2017-08-30T02:29:18.932Z,13.93
2017-08-30T02:31:54.636Z,13.37
2017-08-30T02:34:22.122Z,12.80
2017-08-30T02:36:50.017Z,15.00
2017-08-30T02:39:17.541Z,12.17
2017-08-30T02:41:45.030Z,14.53
2017-08-30T02:44:12.539Z,12.47
2017-08-30T02:46:40.019Z,11.50
2017-08-30T02:49:07.517Z,11.63
2017-08-30T02:51:35.022Z,11.97
2017-08-30T02:54:04.560Z,15.63
2017-08-30T02:56:32.827Z,13.50
2017-08-30T02:59:00.326Z,10.73
2017-08-30T03:01:34.446Z,13.53
2017-08-30T03:04:01.950Z,15.73
2017-08-30T03:06:29.718Z,13.27
2017-08-30T03:08:57.227Z,13.47
2017-08-30T03:11:24.735Z,12.60
2017-08-30T03:13:55.454Z,11.17
2017-08-30T03:16:22.943Z,13.63
2017-08-30T03:18:50.806Z,15.43
2017-08-30T03:21:18.294Z,13.70
2017-08-30T03:23:45.786Z,16.93
2017-08-30T03:26:14.520Z,12.37
2017-08-30T03:28:42.018Z,16.83
2017-08-30T03:31:16.383Z,13.47
2017-08-30T03:33:44.893Z,10.87
2017-08-30T03:36:15.571Z,10.50
2017-08-30T03:38:43.090Z,10.10
2017-08-30T03:41:16.394Z,11.07
2017-08-30T03:43:44.215Z,8.83
2017-08-30T03:46:15.444Z,10.07
2017-08-30T03:48:44.372Z,9.90
2017-08-30T03:51:14.803Z,8.83
2017-08-30T03:53:42.282Z,11.20
2017-08-30T03:56:09.800Z,11.10
2017-08-30T03:58:44.397Z,12.40
2017-08-30T04:01:12.207Z,8.90
2017-08-30T04:03:39.703Z,13.80
2017-08-30T04:06:14.049Z,11.17
2017-08-30T04:08:41.538Z,11.33
2017-08-30T04:11:09.023Z,11.17
2017-08-30T04:13:36.535Z,10.83
2017-08-30T04:16:04.040Z,11.10
2017-08-30T04:18:31.862Z,9.40
2017-08-30T04:20:59.343Z,9.80
2017-08-30T04:23:26.855Z,10.80
2017-08-30T04:26:04.008Z,12.83
2017-08-30T04:28:35.179Z,12.00
2017-08-30T04:31:02.987Z,16.83
2017-08-30T04:33:30.482Z,12.43
2017-08-30T04:36:04.751Z,16.63
2017-08-30T04:38:32.251Z,16.37
2017-08-30T04:40:59.739Z,16.70
2017-08-30T04:43:27.252Z,19.00
2017-08-30T04:45:54.739Z,13.97
2017-08-30T04:48:22.560Z,13.13
2017-08-30T04:50:56.388Z,13.80
2017-08-30T04:53:24.049Z,13.80
2017-08-30T04:55:51.544Z,17.50
2017-08-30T04:58:19.039Z,22.37
2017-08-30T05:00:53.921Z,19.33
2017-08-30T05:03:25.030Z,14.50
2017-08-30T05:05:52.526Z,14.53
2017-08-30T05:08:26.092Z,15.10
2017-08-30T05:10:53.939Z,16.60
2017-08-30T05:13:24.939Z,15.07
2017-08-30T05:15:52.425Z,17.97
2017-08-30T05:18:19.938Z,15.77
2017-08-30T05:20:47.428Z,15.40
2017-08-30T05:23:24.680Z,13.30
2017-08-30T05:25:52.176Z,17.20
2017-08-30T05:28:19.963Z,15.80
2017-08-30T05:30:54.407Z,11.60
2017-08-30T05:33:22.246Z,14.90
2017-08-30T05:35:55.839Z,20.23
2017-08-30T05:38:23.640Z,16.90
2017-08-30T05:40:54.248Z,15.63
2017-08-30T05:43:21.771Z,11.97
2017-08-30T05:45:55.801Z,17.83
2017-08-30T05:48:23.287Z,11.93
2017-08-30T05:50:51.547Z,15.87
2017-08-30T05:53:19.327Z,18.60
2017-08-30T05:55:46.914Z,16.47
2017-08-30T05:58:14.404Z,24.10
2017-08-30T06:00:45.703Z,14.30
2017-08-30T06:03:13.201Z,15.10
2017-08-30T06:05:44.808Z,16.70
2017-08-30T06:08:13.073Z,16.20
2017-08-30T06:10:40.570Z,14.20
2017-08-30T06:13:08.076Z,14.63
2017-08-30T06:15:45.523Z,15.90
2017-08-30T06:18:14.894Z,12.20
2017-08-30T06:20:44.100Z,13.20
2017-08-30T06:23:12.355Z,13.03
2017-08-30T06:25:45.904Z,11.23
2017-08-30T06:28:14.622Z,14.90
2017-08-30T06:30:42.121Z,12.63
2017-08-30T06:33:09.640Z,16.17
2017-08-30T06:35:44.036Z,15.80
2017-08-30T06:38:11.866Z,16.80
2017-08-30T06:40:39.383Z,15.67
2017-08-30T06:43:14.840Z,17.13
2017-08-30T06:45:45.336Z,21.13
2017-08-30T06:48:14.762Z,19.10
2017-08-30T06:50:44.123Z,18.27
2017-08-30T06:53:11.621Z,16.43
2017-08-30T06:55:44.880Z,14.67
2017-08-30T06:58:12.373Z,15.83
2017-08-30T07:00:46.691Z,15.07
2017-08-30T07:03:14.197Z,16.70
2017-08-30T07:05:44.911Z,10.87
2017-08-30T07:08:13.538Z,10.53
2017-08-30T07:10:44.268Z,16.40
2017-08-30T07:13:15.385Z,13.03
2017-08-30T07:15:42.891Z,10.67
2017-08-30T07:18:16.584Z,12.47
2017-08-30T07:20:44.072Z,8.93
2017-08-30T07:23:11.558Z,10.40
2017-08-30T07:25:39.815Z,9.37
2017-08-30T07:28:14.351Z,8.30
2017-08-30T07:30:42.971Z,8.83
2017-08-30T07:33:10.463Z,10.80
2017-08-30T07:35:44.038Z,11.10
2017-08-30T07:38:11.525Z,9.50
2017-08-30T07:40:39.020Z,8.40
2017-08-30T07:43:07.326Z,10.27
2017-08-30T07:45:44.940Z,12.90
2017-08-30T07:48:12.773Z,10.83
2017-08-30T07:50:46.432Z,8.23
2017-08-30T07:53:14.182Z,10.03
2017-08-30T07:55:45.114Z,8.87
2017-08-30T07:58:16.117Z,9.60
2017-08-30T08:00:44.523Z,6.63
2017-08-30T08:03:15.175Z,9.30
2017-08-30T08:05:46.147Z,9.60
2017-08-30T08:08:13.632Z,7.50
2017-08-30T08:10:41.107Z,7.67
2017-08-30T08:13:08.620Z,7.03
2017-08-30T08:15:36.110Z,8.27
2017-08-30T08:18:03.964Z,12.03
2017-08-30T08:20:34.577Z,7.93
2017-08-30T08:23:02.836Z,6.33
2017-08-30T08:25:30.340Z,6.83
2017-08-30T08:28:04.220Z,9.83
2017-08-30T08:30:31.718Z,10.67
2017-08-30T08:32:59.216Z,11.77
2017-08-30T08:35:26.998Z,7.13
2017-08-30T08:38:05.008Z,6.60
2017-08-30T08:40:32.884Z,7.00
2017-08-30T08:43:06.166Z,9.80
2017-08-30T08:45:33.974Z,7.40
2017-08-30T08:48:01.465Z,8.17
2017-08-30T08:50:35.390Z,9.27
2017-08-30T08:53:03.996Z,6.80
2017-08-30T08:55:31.494Z,8.77
2017-08-30T08:57:58.993Z,7.97
2017-08-30T09:00:34.497Z,6.73
2017-08-30T09:03:05.344Z,7.40
2017-08-30T09:05:35.998Z,6.20
2017-08-30T09:08:03.768Z,8.57
2017-08-30T09:10:34.372Z,7.30
2017-08-30T09:13:05.694Z,9.30
2017-08-30T09:15:33.177Z,10.97
2017-08-30T09:18:00.665Z,7.90
2017-08-30T09:20:34.446Z,9.63
2017-08-30T09:23:01.933Z,7.00
2017-08-30T09:25:35.835Z,9.03
2017-08-30T09:28:03.325Z,7.27
2017-08-30T09:30:31.123Z,7.50
2017-08-30T09:32:58.614Z,7.40
2017-08-30T09:35:34.806Z,7.13
2017-08-30T09:38:02.305Z,6.67
2017-08-30T09:40:36.727Z,7.97
2017-08-30T09:43:04.219Z,7.63
2017-08-30T09:45:34.726Z,7.37
2017-08-30T09:48:05.720Z,13.10
2017-08-30T09:50:33.197Z,6.67
2017-08-30T09:53:00.691Z,7.30
2017-08-30T09:55:28.491Z,8.23
2017-08-30T09:57:55.982Z,6.90
2017-08-30T10:00:23.988Z,7.27
2017-08-30T10:02:51.479Z,7.43
2017-08-30T10:05:19.742Z,7.40
2017-08-30T10:07:47.252Z,7.67
2017-08-30T10:10:14.743Z,13.83
2017-08-30T10:12:42.535Z,7.83
2017-08-30T10:15:10.044Z,14.40
2017-08-30T10:17:37.534Z,5.97
2017-08-30T10:20:05.314Z,7.60
2017-08-30T10:22:32.905Z,8.07
2017-08-30T10:25:00.392Z,6.97
2017-08-30T10:27:34.505Z,6.43
2017-08-30T10:30:02.004Z,6.00
2017-08-30T10:32:29.785Z,6.60
2017-08-30T10:34:57.284Z,12.20
2017-08-30T10:37:35.613Z,5.40
2017-08-30T10:40:04.619Z,6.80
2017-08-30T10:42:32.096Z,4.80
2017-08-30T10:45:05.447Z,4.20
2017-08-30T10:47:32.941Z,7.27
2017-08-30T10:50:04.611Z,9.13
2017-08-30T10:52:32.872Z,4.53
2017-08-30T10:55:06.555Z,5.27
2017-08-30T10:57:34.033Z,4.90
2017-08-30T11:00:01.529Z,6.60
2017-08-30T11:02:35.764Z,9.60
2017-08-30T11:05:03.268Z,6.50
2017-08-30T11:07:30.761Z,6.20
2017-08-30T11:09:58.262Z,8.47
2017-08-30T11:12:25.750Z,8.77
2017-08-30T11:14:54.648Z,7.63
2017-08-30T11:17:22.151Z,9.47
2017-08-30T11:19:49.644Z,4.60
2017-08-30T11:22:17.990Z,3.37
2017-08-30T11:24:45.477Z,5.17
2017-08-30T11:27:14.889Z,4.57
2017-08-30T11:29:45.311Z,7.20
2017-08-30T11:32:16.225Z,5.57
2017-08-30T11:34:43.703Z,5.80
2017-08-30T11:37:11.186Z,5.03
2017-08-30T11:39:39.073Z,6.50
2017-08-30T11:42:14.399Z,5.83
2017-08-30T11:44:42.255Z,8.70
2017-08-30T11:47:09.763Z,5.90
2017-08-30T11:49:37.256Z,9.57
2017-08-30T11:52:14.593Z,5.20
2017-08-30T11:54:45.291Z,8.50
2017-08-30T11:57:13.833Z,5.97
2017-08-30T11:59:41.365Z,6.43
2017-08-30T12:02:08.848Z,5.67
2017-08-30T12:04:44.169Z,7.63
2017-08-30T12:07:11.649Z,7.97
2017-08-30T12:09:39.169Z,4.97
2017-08-30T12:12:13.968Z,5.83
2017-08-30T12:14:45.043Z,4.97
2017-08-30T12:17:15.467Z,5.13
2017-08-30T12:19:44.126Z,5.10
2017-08-30T12:22:14.635Z,5.87
2017-08-30T12:24:42.151Z,6.00
2017-08-30T12:27:15.970Z,4.97
2017-08-30T12:29:44.468Z,5.50
2017-08-30T12:32:15.658Z,4.70
2017-08-30T12:34:43.161Z,9.50
2017-08-30T12:37:22.446Z,4.30
2017-08-30T12:39:56.104Z,5.83
2017-08-30T12:42:23.877Z,4.77
2017-08-30T12:44:54.907Z,12.57
2017-08-30T12:47:25.938Z,5.77
2017-08-30T12:49:53.427Z,3.97
2017-08-30T12:52:20.936Z,4.07
2017-08-30T12:54:48.796Z,2.97
2017-08-30T12:57:16.292Z,4.03
2017-08-30T12:59:43.811Z,5.53
2017-08-30T13:02:16.166Z,4.20
2017-08-30T13:04:44.603Z,4.90
2017-08-30T13:07:12.105Z,4.13
2017-08-30T13:09:39.604Z,7.43
2017-08-30T13:12:14.444Z,5.77
2017-08-30T13:14:45.944Z,12.33
2017-08-30T13:17:14.191Z,4.50
2017-08-30T13:19:41.694Z,4.57
2017-08-30T13:22:10.271Z,7.50
2017-08-30T13:24:37.768Z,2.60
2017-08-30T13:27:05.274Z,4.43
2017-08-30T13:29:32.780Z,4.70
2017-08-30T13:32:00.273Z,5.97
2017-08-30T13:34:34.020Z,4.77
2017-08-30T13:37:01.515Z,2.57
2017-08-30T13:39:28.999Z,5.20
2017-08-30T13:42:03.869Z,4.93
2017-08-30T13:44:31.355Z,8.60
2017-08-30T13:47:05.327Z,3.03
2017-08-30T13:49:32.826Z,7.77
2017-08-30T13:52:00.648Z,6.20
2017-08-30T13:54:35.359Z,7.93
2017-08-30T13:57:03.159Z,4.00
2017-08-30T13:59:30.645Z,2.47
2017-08-30T14:01:58.137Z,4.83
2017-08-30T14:04:25.632Z,4.27
2017-08-30T14:06:54.647Z,3.27
2017-08-30T14:09:22.405Z,2.80
2017-08-30T14:11:55.889Z,4.90
2017-08-30T14:14:23.744Z,5.40
2017-08-30T14:16:51.987Z,3.87
2017-08-30T14:19:26.116Z,5.13
2017-08-30T14:21:53.605Z,7.57
2017-08-30T14:24:21.089Z,6.77
2017-08-30T14:26:48.936Z,4.93
2017-08-30T14:29:16.428Z,2.63
2017-08-30T14:31:44.729Z,3.77
2017-08-30T14:34:15.456Z,6.30
2017-08-30T14:36:42.954Z,6.70
2017-08-30T14:39:11.507Z,2.40
2017-08-30T14:41:45.550Z,2.80
2017-08-30T14:44:13.315Z,3.47
2017-08-30T14:46:44.377Z,7.03
2017-08-30T14:49:15.325Z,3.53
2017-08-30T14:51:45.761Z,5.30
2017-08-30T14:54:14.716Z,3.97
2017-08-30T14:56:45.222Z,4.37
2017-08-30T14:59:12.723Z,5.80
2017-08-30T15:01:46.585Z,2.97
2017-08-30T15:04:24.147Z,3.63
2017-08-30T15:06:51.901Z,5.87
2017-08-30T15:09:19.394Z,2.30
2017-08-30T15:11:54.603Z,3.00
2017-08-30T15:14:22.095Z,3.70
2017-08-30T15:16:56.246Z,2.50
2017-08-30T15:19:23.741Z,6.47
2017-08-30T15:21:55.912Z,4.60
2017-08-30T15:24:24.326Z,3.83
2017-08-30T15:26:51.805Z,3.30
2017-08-30T15:29:19.348Z,6.27
2017-08-30T15:31:53.961Z,2.07
2017-08-30T15:34:24.809Z,4.90
2017-08-30T15:36:55.563Z,3.07
2017-08-30T15:39:23.331Z,13.10
2017-08-30T15:41:50.809Z,3.33
2017-08-30T15:44:25.052Z,2.70
2017-08-30T15:46:55.643Z,5.30
2017-08-30T15:49:23.135Z,1.70
2017-08-30T15:51:51.387Z,6.93
2017-08-30T15:54:25.004Z,4.33
2017-08-30T15:56:52.798Z,6.83
2017-08-30T15:59:20.296Z,2.17
2017-08-30T16:01:47.778Z,2.20
2017-08-30T16:04:15.320Z,3.17
2017-08-30T16:06:44.318Z,3.43
2017-08-30T16:09:12.128Z,3.50
2017-08-30T16:11:39.621Z,4.67
2017-08-30T16:14:14.509Z,5.70
2017-08-30T16:16:42.773Z,4.00
2017-08-30T16:19:15.048Z,6.57
2017-08-30T16:21:43.351Z,3.00
2017-08-30T16:24:10.849Z,10.70
2017-08-30T16:26:38.351Z,3.67
2017-08-30T16:29:14.418Z,2.23
2017-08-30T16:31:41.960Z,2.07
2017-08-30T16:34:09.500Z,3.20
2017-08-30T16:36:37.265Z,3.70
2017-08-30T16:39:04.763Z,2.90
2017-08-30T16:41:32.260Z,3.70
2017-08-30T16:44:05.649Z,2.83
2017-08-30T16:46:33.170Z,17.73
2017-08-30T16:49:01.043Z,3.47
2017-08-30T16:51:29.326Z,6.13
2017-08-30T16:53:56.835Z,4.43
2017-08-30T16:56:34.363Z,3.70
2017-08-30T16:59:04.379Z,2.43
2017-08-30T17:01:34.512Z,5.60
2017-08-30T17:04:04.907Z,2.63
2017-08-30T17:06:35.032Z,4.47
2017-08-30T17:09:05.632Z,3.37
2017-08-30T17:11:33.144Z,6.60
2017-08-30T17:14:00.643Z,6.60
2017-08-30T17:16:28.142Z,10.90
2017-08-30T17:18:56.759Z,3.07
2017-08-30T17:21:34.355Z,2.67
2017-08-30T17:24:02.205Z,3.00
2017-08-30T17:26:29.701Z,7.20
2017-08-30T17:29:04.104Z,10.17
2017-08-30T17:31:31.583Z,4.80
2017-08-30T17:33:59.066Z,6.87
2017-08-30T17:36:26.865Z,10.30
2017-08-30T17:38:54.356Z,1.87
2017-08-30T17:41:25.038Z,3.77
2017-08-30T17:43:52.531Z,4.27
2017-08-30T17:46:20.031Z,4.73
2017-08-30T17:48:54.220Z,5.23
2017-08-30T17:51:21.702Z,3.17
2017-08-30T17:53:49.199Z,3.30
2017-08-30T17:56:23.854Z,2.60
2017-08-30T17:58:51.332Z,2.27
2017-08-30T18:01:25.055Z,5.73
2017-08-30T18:03:52.568Z,4.10
2017-08-30T18:06:20.490Z,3.17
2017-08-30T18:08:54.012Z,3.73
2017-08-30T18:11:21.777Z,4.43
2017-08-30T18:13:55.211Z,2.90
2017-08-30T18:16:22.719Z,6.53
2017-08-30T18:18:50.976Z,3.70
2017-08-30T18:21:24.524Z,6.10
2017-08-30T18:23:52.034Z,7.60
2017-08-30T18:26:19.534Z,4.20
2017-08-30T18:28:47.046Z,2.53
2017-08-30T18:31:14.571Z,4.83
2017-08-30T18:33:45.578Z,2.87
2017-08-30T18:36:13.844Z,2.40
2017-08-30T18:38:44.441Z,2.60
2017-08-30T18:41:11.931Z,3.60
2017-08-30T18:43:39.537Z,4.80
2017-08-30T18:46:14.229Z,3.07
2017-08-30T18:48:41.713Z,4.77
2017-08-30T18:51:15.554Z,2.10
2017-08-30T18:53:43.039Z,5.93
2017-08-30T18:56:10.527Z,3.40
2017-08-30T18:58:38.035Z,3.63
2017-08-30T19:01:05.524Z,3.20
2017-08-30T19:03:34.133Z,7.17
2017-08-30T19:06:04.777Z,3.57
2017-08-30T19:08:35.844Z,4.43
2017-08-30T19:11:03.360Z,6.20
2017-08-30T19:13:37.081Z,3.73
2017-08-30T19:16:04.568Z,4.90
2017-08-30T19:18:32.052Z,6.27
2017-08-30T19:21:06.014Z,2.07
2017-08-30T19:23:33.513Z,2.13
2017-08-30T19:26:01.332Z,5.80
2017-08-30T19:28:34.814Z,2.20
2017-08-30T19:31:05.865Z,2.93
2017-08-30T19:33:33.358Z,2.17
2017-08-30T19:36:00.843Z,4.67
2017-08-30T19:38:34.826Z,2.27
2017-08-30T19:41:05.531Z,9.27
2017-08-30T19:43:34.625Z,3.73
2017-08-30T19:46:02.132Z,2.70
2017-08-30T19:48:29.633Z,1.80
2017-08-30T19:50:57.134Z,2.33
2017-08-30T19:53:24.615Z,2.27
2017-08-30T19:55:55.692Z,3.20
2017-08-30T19:58:24.020Z,2.20
2017-08-30T20:00:51.504Z,2.53
2017-08-30T20:03:19.003Z,3.10
2017-08-30T20:05:53.879Z,3.33
2017-08-30T20:08:21.681Z,6.10
2017-08-30T20:10:55.436Z,3.33
2017-08-30T20:13:24.571Z,2.30
2017-08-30T20:15:52.072Z,1.67
2017-08-30T20:18:25.632Z,1.40
2017-08-30T20:20:53.124Z,1.77
2017-08-30T20:23:20.599Z,6.67
2017-08-30T20:25:48.099Z,2.53
2017-08-30T20:28:24.128Z,2.73
2017-08-30T20:30:51.918Z,3.70
2017-08-30T20:33:20.171Z,2.07
2017-08-30T20:35:54.488Z,2.60
2017-08-30T20:38:25.130Z,7.20
2017-08-30T20:40:52.619Z,2.23
2017-08-30T20:43:20.392Z,2.30
2017-08-30T20:45:47.875Z,1.87
2017-08-30T20:48:24.106Z,1.23
2017-08-30T20:50:51.615Z,3.03
2017-08-30T20:53:25.776Z,3.50
2017-08-30T20:55:53.270Z,1.53
2017-08-30T20:58:24.195Z,3.17
2017-08-30T21:00:54.884Z,1.67
2017-08-30T21:03:22.377Z,2.70
2017-08-30T21:05:56.323Z,3.80
2017-08-30T21:08:24.920Z,2.17
2017-08-30T21:10:55.455Z,3.60
2017-08-30T21:13:22.952Z,1.30
2017-08-30T21:15:50.432Z,3.13
2017-08-30T21:18:18.269Z,3.17
2017-08-30T21:20:45.760Z,1.20
2017-08-30T21:23:13.248Z,3.00
2017-08-30T21:25:44.631Z,1.97
2017-08-30T21:28:15.109Z,3.00
2017-08-30T21:30:46.099Z,3.07
2017-08-30T21:33:13.578Z,1.07
2017-08-30T21:35:41.067Z,3.73
2017-08-30T21:38:08.568Z,2.47
2017-08-30T21:40:36.064Z,1.30
2017-08-30T21:43:05.352Z,2.27
2017-08-30T21:45:34.609Z,2.83
2017-08-30T21:48:05.462Z,5.20
2017-08-30T21:50:34.763Z,2.33
2017-08-30T21:53:05.616Z,4.20
2017-08-30T21:55:33.094Z,3.63
2017-08-30T21:58:00.584Z,2.13
2017-08-30T22:00:34.064Z,1.73
2017-08-30T22:03:02.452Z,2.20
2017-08-30T22:05:29.960Z,1.57
2017-08-30T22:08:04.060Z,2.57
2017-08-30T22:10:35.231Z,2.17
2017-08-30T22:13:04.333Z,2.40
2017-08-30T22:15:31.810Z,1.47
2017-08-30T22:17:59.298Z,2.23
2017-08-30T22:20:33.808Z,2.00
2017-08-30T22:23:01.308Z,2.03
2017-08-30T22:25:35.011Z,3.47
2017-08-30T22:28:06.063Z,1.90
2017-08-30T22:30:34.161Z,4.33
2017-08-30T22:33:04.810Z,1.70
2017-08-30T22:35:35.225Z,3.43
2017-08-30T22:38:02.704Z,4.10
2017-08-30T22:40:36.437Z,1.90
2017-08-30T22:43:04.692Z,8.03
2017-08-30T22:45:32.175Z,3.07
2017-08-30T22:47:59.684Z,2.90
2017-08-30T22:50:34.273Z,2.33
2017-08-30T22:53:01.775Z,1.70
2017-08-30T22:55:35.763Z,3.03
2017-08-30T22:58:03.609Z,4.97
2017-08-30T23:00:34.282Z,1.83
2017-08-30T23:03:01.763Z,1.93
2017-08-30T23:05:35.200Z,1.80
2017-08-30T23:08:04.024Z,2.33
2017-08-30T23:10:34.675Z,2.27
2017-08-30T23:13:05.224Z,2.63
2017-08-30T23:15:36.078Z,1.93
2017-08-30T23:18:04.274Z,1.70
2017-08-30T23:20:31.770Z,3.90
2017-08-30T23:22:59.265Z,2.67
2017-08-30T23:25:27.519Z,2.07
2017-08-30T23:28:04.624Z,2.80
2017-08-30T23:30:32.103Z,2.00
2017-08-30T23:32:59.965Z,3.17
2017-08-30T23:35:33.717Z,10.17
2017-08-30T23:38:01.534Z,1.37
2017-08-30T23:40:29.019Z,2.83
2017-08-30T23:43:04.047Z,4.20
2017-08-30T23:45:34.464Z,4.60
2017-08-30T23:48:05.388Z,3.20
2017-08-30T23:50:34.703Z,4.40
2017-08-30T23:53:05.519Z,2.57
2017-08-30T23:55:34.711Z,3.60
2017-08-30T23:58:05.560Z,1.50
